Time;durP1;ratioP1;P1;durP2;ratioP2;P2;SDS_P1;SDS_P2;PMS_P1;PMS_P2;Temp;Humidity;BMP_temperature;BMP_pressure;BME280_temperature;BME280_humidity;BME280_pressure;Samples;Min_cycle;Max_cycle;Signal;HPM_P1;HPM_P2
2024/01/05 00:04:18;;;;;;;3.22;2.30;;;;;;;-21.49;78.72;100977.84;10419106;28;20535;-66
2024/01/05 00:09:21;;;;;;;5.43;1.90;;;;;;;-21.47;78.73;100971.66;10435093;28;20041;-66
2024/01/05 00:14:24;;;;;;;4.18;2.13;;;;;;;-21.49;79.18;100960.47;10431236;28;20049;-65
2024/01/05 00:19:27;;;;;;;3.58;2.30;;;;;;;-21.54;78.97;100953.75;10415434;28;20422;-66
2024/01/05 00:24:29;;;;;;;3.15;2.35;;;;;;;-21.53;78.84;100968.47;10414615;28;20079;-65
2024/01/05 00:29:32;;;;;;;3.92;1.88;;;;;;;-21.50;78.53;100955.31;10432998;28;20034;-67
2024/01/05 00:34:36;;;;;;;4.47;2.17;;;;;;;-21.54;78.48;100956.34;10444920;28;20041;-66
2024/01/05 00:39:38;;;;;;;2.40;1.70;;;;;;;-21.58;79.24;100952.19;10427039;28;20548;-66
2024/01/05 00:44:41;;;;;;;2.65;2.10;;;;;;;-21.54;79.17;100956.34;10410145;28;20048;-66
2024/01/05 00:49:44;;;;;;;4.13;2.10;;;;;;;-21.61;79.59;100947.13;10435439;28;20033;-65
2024/01/05 00:54:48;;;;;;;3.10;2.10;;;;;;;-21.60;80.12;100936.66;10421736;28;20425;-66
2024/01/05 00:59:51;;;;;;;2.65;1.65;;;;;;;-21.58;79.83;100932.22;10410582;28;20041;-66
2024/01/05 01:04:54;;;;;;;2.47;1.85;;;;;;;-21.57;80.56;100935.66;10430987;28;20042;-65
2024/01/05 01:09:57;;;;;;;2.40;1.38;;;;;;;-21.58;81.45;100937.44;10430549;28;20080;-66
2024/01/05 01:15:02;;;;;;;2.75;2.03;;;;;;;-21.58;81.14;100931.38;10419551;28;20128;-66
2024/01/05 01:20:06;;;;;;;2.35;1.55;;;;;;;-21.59;81.27;100916.66;10440245;28;20033;-65
2024/01/05 01:25:09;;;;;;;3.97;1.98;;;;;;;-21.68;81.69;100936.16;10431990;28;20056;-66
2024/01/05 01:30:13;;;;;;;2.42;1.60;;;;;;;-21.66;82.13;100936.94;10429783;28;20040;-66
2024/01/05 01:35:15;;;;;;;3.80;1.70;;;;;;;-21.73;81.87;100912.94;10438197;28;20509;-66
2024/01/05 01:40:18;;;;;;;2.42;1.77;;;;;;;-21.79;81.93;100921.03;10434414;28;20485;-65
2024/01/05 01:45:23;;;;;;;5.07;1.70;;;;;;;-21.84;81.78;100894.38;10413507;28;20058;-66
2024/01/05 01:50:26;;;;;;;3.47;2.30;;;;;;;-21.91;82.06;100908.56;10426861;28;20045;-66
2024/01/05 01:55:29;;;;;;;2.97;1.73;;;;;;;-21.99;81.58;100895.06;10440393;28;20540;-66
2024/01/05 02:00:32;;;;;;;3.45;1.88;;;;;;;-22.07;81.47;100879.81;10449955;28;20036;-67
2024/01/05 02:05:38;;;;;;;2.13;1.48;;;;;;;-22.19;81.38;100882.13;10436723;28;20057;-66
2024/01/05 02:10:41;;;;;;;3.42;1.90;;;;;;;-22.23;80.62;100873.59;10407478;28;20425;-66
2024/01/05 02:15:43;;;;;;;3.67;1.70;;;;;;;-22.25;81.08;100880.63;10443875;28;20041;-67
2024/01/05 02:21:06;;;;;;;2.72;1.80;;;;;;;-22.26;81.16;100870.28;10420133;28;20049;-66
2024/01/05 02:26:09;;;;;;;2.22;1.55;;;;;;;-22.27;80.26;100860.78;10436556;28;20037;-65
2024/01/05 02:31:12;;;;;;;4.32;1.85;;;;;;;-22.25;80.55;100879.78;10423210;28;20049;-66
2024/01/05 02:36:16;;;;;;;2.72;1.75;;;;;;;-22.30;80.42;100865.22;10416438;28;20029;-67
2024/01/05 02:41:19;;;;;;;4.38;2.00;;;;;;;-22.30;80.34;100880.00;10414888;28;20037;-66
2024/01/05 02:46:21;;;;;;;3.50;1.90;;;;;;;-22.31;80.72;100858.34;10440777;28;20053;-67
2024/01/05 02:51:23;;;;;;;4.45;1.60;;;;;;;-22.35;80.78;100856.78;10434635;28;20056;-66
2024/01/05 02:56:27;;;;;;;5.35;2.58;;;;;;;-22.48;80.75;100858.22;10444167;28;20439;-66
2024/01/05 03:01:30;;;;;;;4.18;1.90;;;;;;;-22.47;80.46;100846.91;10436628;28;20042;-66
2024/01/05 03:06:33;;;;;;;4.25;1.90;;;;;;;-22.43;80.59;100864.06;10437652;28;20038;-66
2024/01/05 03:11:37;;;;;;;4.03;1.90;;;;;;;-22.47;81.04;100846.91;10436496;28;20045;-66
2024/01/05 03:16:39;;;;;;;5.45;1.83;;;;;;;-22.50;81.18;100870.47;10435152;28;20517;-66
2024/01/05 03:21:42;;;;;;;4.75;2.17;;;;;;;-22.60;80.97;100870.00;10446571;28;20063;-66
2024/01/05 03:26:44;;;;;;;3.28;1.83;;;;;;;-22.63;81.16;100845.88;10446392;28;20041;-66
2024/01/05 03:31:48;;;;;;;4.95;2.08;;;;;;;-22.74;80.92;100853.28;10432601;28;20814;-66
2024/01/05 03:36:50;;;;;;;6.50;2.40;;;;;;;-22.73;81.22;100845.47;10404380;28;20062;-66
2024/01/05 03:41:53;;;;;;;4.25;2.03;;;;;;;-22.81;81.51;100838.91;10443755;28;20495;-67
2024/01/05 03:46:55;;;;;;;3.40;1.45;;;;;;;-22.81;81.05;100823.31;10398347;28;1213517;-65
2024/01/05 03:51:58;;;;;;;3.70;2.22;;;;;;;-22.88;81.57;100824.50;10423514;28;20049;-66
2024/01/05 03:57:01;;;;;;;3.25;1.88;;;;;;;-22.85;81.29;100835.59;10435248;28;20049;-67
2024/01/05 04:02:04;;;;;;;3.72;1.80;;;;;;;-23.00;81.13;100826.69;10419645;28;20064;-67
2024/01/05 04:07:06;;;;;;;4.15;1.80;;;;;;;-23.10;81.16;100829.72;10408543;28;20045;-67
2024/01/05 04:12:09;;;;;;;4.10;2.28;;;;;;;-23.16;80.74;100828.25;10410693;28;20420;-66
2024/01/05 04:17:11;;;;;;;3.50;1.88;;;;;;;-23.19;80.91;100836.16;10430346;28;20033;-68
2024/01/05 04:22:14;;;;;;;3.92;2.00;;;;;;;-23.30;80.92;100840.94;10412374;28;20041;-67
2024/01/05 04:27:16;;;;;;;5.05;2.60;;;;;;;-23.31;80.88;100837.50;10441858;28;20041;-66
2024/01/05 04:32:18;;;;;;;3.55;2.40;;;;;;;-23.38;80.68;100836.09;10430187;28;20048;-67
2024/01/05 04:37:21;;;;;;;3.40;1.98;;;;;;;-23.58;80.81;100836.06;10435610;28;20034;-66
2024/01/05 04:42:26;;;;;;;3.45;2.40;;;;;;;-23.77;80.51;100843.72;10443127;28;20049;-66
2024/01/05 04:47:28;;;;;;;3.85;2.03;;;;;;;-23.74;80.81;100837.56;10442078;28;20045;-67
2024/01/05 04:52:31;;;;;;;5.00;3.03;;;;;;;-23.86;80.10;100846.66;10443335;28;20044;-66
2024/01/05 04:57:33;;;;;;;5.13;2.60;;;;;;;-23.99;80.42;100850.63;10444515;28;20051;-65
2024/01/05 05:02:36;;;;;;;5.03;2.00;;;;;;;-24.14;79.74;100849.44;10429058;28;20037;-65
2024/01/05 05:07:38;;;;;;;5.80;2.78;;;;;;;-24.14;80.52;100846.84;10437817;28;20386;-66
2024/01/05 05:12:40;;;;;;;5.00;2.90;;;;;;;-24.23;80.30;100844.63;10440926;28;20043;-66
2024/01/05 05:17:43;;;;;;;7.05;3.20;;;;;;;-24.22;80.21;100841.97;10416446;28;20034;-67
2024/01/05 05:22:45;;;;;;;6.78;3.17;;;;;;;-24.22;80.46;100851.50;10434626;28;20048;-68
2024/01/05 05:27:47;;;;;;;6.38;3.00;;;;;;;-24.17;80.53;100829.66;10429993;28;20037;-67
2024/01/05 05:32:50;;;;;;;6.65;3.40;;;;;;;-24.18;80.15;100821.94;10440619;28;20095;-66
2024/01/05 05:37:52;;;;;;;6.22;2.92;;;;;;;-24.09;79.97;100831.13;10435563;28;20049;-66
2024/01/05 05:42:55;;;;;;;6.72;3.15;;;;;;;-24.08;79.65;100848.38;10424059;28;20517;-67
2024/01/05 05:47:58;;;;;;;4.15;2.40;;;;;;;-24.22;79.94;100841.97;10425090;28;20049;-66
2024/01/05 05:53:00;;;;;;;6.82;3.80;;;;;;;-24.16;80.34;100846.06;10435260;28;20045;-68
2024/01/05 05:58:03;;;;;;;7.13;3.42;;;;;;;-24.19;80.55;100830.63;10428149;28;20033;-68
2024/01/05 06:03:06;;;;;;;7.63;3.35;;;;;;;-24.15;80.36;100840.81;10427128;28;20041;-68
2024/01/05 06:08:08;;;;;;;5.57;3.42;;;;;;;-24.22;80.21;100836.78;10431259;28;20052;-67
2024/01/05 06:13:10;;;;;;;5.85;3.10;;;;;;;-24.20;80.58;100844.50;10406783;28;20037;-67
2024/01/05 06:18:13;;;;;;;5.60;2.78;;;;;;;-24.26;80.08;100839.53;10411351;28;20038;-66
2024/01/05 06:23:15;;;;;;;5.75;3.60;;;;;;;-24.40;80.05;100837.47;10422064;28;20041;-67
2024/01/05 06:28:17;;;;;;;7.13;3.65;;;;;;;-24.41;79.57;100850.50;10426391;28;20528;-67
2024/01/05 06:33:20;;;;;;;5.18;3.08;;;;;;;-24.50;80.05;100844.72;10437620;28;20048;-67
2024/01/05 06:38:22;;;;;;;4.90;2.95;;;;;;;-24.45;79.71;100844.59;10427809;28;20034;-68
2024/01/05 06:43:25;;;;;;;5.10;2.47;;;;;;;-24.52;79.59;100856.06;10423658;28;20056;-67
2024/01/05 06:48:27;;;;;;;8.63;3.50;;;;;;;-24.54;79.94;100852.69;10423709;28;20053;-66
2024/01/05 06:53:30;;;;;;;6.10;3.10;;;;;;;-24.50;79.36;100855.09;10428938;28;20043;-66
2024/01/05 06:58:34;;;;;;;6.30;4.10;;;;;;;-24.53;79.41;100847.44;10430098;28;20037;-67
2024/01/05 07:03:36;;;;;;;7.15;3.47;;;;;;;-24.52;78.91;100861.25;10437025;28;20037;-67
2024/01/05 07:08:39;;;;;;;7.00;3.33;;;;;;;-24.48;78.95;100855.03;10435558;28;20037;-68
2024/01/05 07:13:42;;;;;;;7.68;3.80;;;;;;;-24.57;78.96;100851.03;10443955;28;20068;-66
2024/01/05 07:18:46;;;;;;;8.23;3.67;;;;;;;-24.58;78.96;100853.69;10416774;28;20041;-66
2024/01/05 07:23:48;;;;;;;5.38;3.10;;;;;;;-24.64;79.17;100874.63;10429551;28;20535;-67
2024/01/05 07:28:51;;;;;;;6.20;3.58;;;;;;;-24.53;78.83;100854.38;10421835;28;20053;-66
2024/01/05 07:33:56;;;;;;;6.82;3.60;;;;;;;-24.47;79.78;100851.53;10409483;28;20665;-67
2024/01/05 07:38:59;;;;;;;7.30;4.00;;;;;;;-24.46;78.58;100858.44;10413980;28;20038;-67
2024/01/05 07:44:01;;;;;;;8.80;3.88;;;;;;;-24.30;78.40;100848.34;10411084;28;20045;-66
2024/01/05 07:49:04;;;;;;;7.88;3.70;;;;;;;-24.09;78.11;100849.28;10407335;28;20049;-67
2024/01/05 07:54:06;;;;;;;6.07;3.38;;;;;;;-24.06;77.72;100849.19;10424379;28;20048;-66
2024/01/05 07:59:09;;;;;;;6.75;3.63;;;;;;;-23.85;77.26;100837.97;10429349;28;20026;-66
2024/01/05 08:04:11;;;;;;;7.85;3.72;;;;;;;-23.55;77.09;100848.88;10429196;28;20037;-68
2024/01/05 08:09:15;;;;;;;6.93;4.00;;;;;;;-23.76;76.49;100850.59;10434322;28;20049;-67
2024/01/05 08:14:18;;;;;;;7.47;3.53;;;;;;;-24.06;76.79;100838.81;10438495;28;20045;-68
2024/01/05 08:19:21;;;;;;;9.07;3.80;;;;;;;-24.09;76.62;100847.53;10440579;28;20125;-67
2024/01/05 08:24:25;;;;;;;8.55;4.30;;;;;;;-24.16;76.58;100836.53;10444798;28;20461;-67
2024/01/05 08:29:28;;;;;;;9.30;4.30;;;;;;;-24.15;77.03;100843.41;10441763;28;20068;-67
2024/01/05 08:34:30;;;;;;;6.93;3.55;;;;;;;-24.33;77.24;100844.13;10443533;28;20045;-67
2024/01/05 08:39:34;;;;;;;7.00;3.15;;;;;;;-24.22;76.57;100836.78;10424592;28;20029;-67
2024/01/05 08:44:36;;;;;;;8.98;4.38;;;;;;;-24.15;76.96;100843.41;10415624;28;20064;-67
2024/01/05 08:49:38;;;;;;;8.80;4.43;;;;;;;-24.13;77.13;100838.16;10420368;28;20050;-67
2024/01/05 08:54:40;;;;;;;7.05;3.45;;;;;;;-24.08;77.02;100831.09;10408821;28;20029;-68
2024/01/05 08:59:43;;;;;;;10.25;4.82;;;;;;;-23.98;77.01;100832.41;10431949;28;20046;-67
2024/01/05 09:04:46;;;;;;;10.73;5.32;;;;;;;-23.99;76.85;100827.28;10415137;28;20053;-66
2024/01/05 09:09:49;;;;;;;11.43;5.35;;;;;;;-23.97;76.41;100839.28;10437697;28;20041;-67
2024/01/05 09:14:52;;;;;;;12.18;4.68;;;;;;;-23.89;76.71;100826.03;10434716;28;20507;-67
2024/01/05 09:19:54;;;;;;;10.88;5.57;;;;;;;-23.88;76.34;100827.72;10442620;28;20505;-67
2024/01/05 09:24:57;;;;;;;9.35;5.22;;;;;;;-23.84;76.37;100834.47;10426918;28;20398;-67
2024/01/05 09:29:59;;;;;;;8.00;4.70;;;;;;;-23.87;76.33;100821.63;10422027;28;20036;-66
2024/01/05 09:35:04;;;;;;;8.07;4.97;;;;;;;-23.88;76.14;100822.53;10422160;28;20040;-67
2024/01/05 09:40:10;;;;;;;10.00;4.93;;;;;;;-23.85;76.11;100809.44;10422646;28;20029;-67
2024/01/05 09:45:35;;;;;;;;;;;;;;;-23.79;76.02;100816.13;10438152;28;20058;-66
2024/01/05 09:50:58;;;;;;;11.90;4.93;;;;;;;-23.58;75.41;100804.94;10417783;28;19921;-66
2024/01/05 09:56:21;;;;;;;11.95;4.88;;;;;;;-23.47;75.99;100792.31;10434698;28;20037;-66
2024/01/05 10:01:48;;;;;;;9.05;4.28;;;;;;;-23.48;75.75;100788.03;10428920;28;20121;-67
2024/01/05 10:07:10;;;;;;;8.43;4.40;;;;;;;-23.36;74.95;100778.91;10421236;28;20033;-67
2024/01/05 10:12:33;;;;;;;10.13;4.70;;;;;;;-23.21;75.63;100775.66;10419794;28;20091;-67
2024/01/05 10:17:57;;;;;;;11.07;5.13;;;;;;;-23.19;74.88;100776.44;10441905;28;20509;-67
2024/01/05 10:23:20;;;;;;;9.50;3.60;;;;;;;-23.39;74.81;100771.25;10417392;28;20041;-67
2024/01/05 10:28:42;;;;;;;8.88;4.32;;;;;;;-23.31;74.76;100761.38;10448552;28;20505;-67
2024/01/05 10:34:04;;;;;;;10.23;5.07;;;;;;;-23.25;74.87;100753.31;10447703;28;20056;-67
2024/01/05 10:39:27;;;;;;;8.85;4.10;;;;;;;-23.17;75.37;100748.66;10427196;28;20026;-65
2024/01/05 10:44:56;;;;;;;10.73;4.32;;;;;;;-23.13;75.31;100736.38;10439891;28;20041;-65
2024/01/05 10:50:18;;;;;;;9.70;3.85;;;;;;;-23.05;75.10;100752.47;10409296;28;20050;-66
2024/01/05 10:55:43;;;;;;;9.73;5.20;;;;;;;-23.07;75.05;100733.53;10429821;28;20052;-67
2024/01/05 11:01:08;;;;;;;8.13;4.25;;;;;;;-23.10;75.09;100736.22;10413328;28;20041;-68
2024/01/05 11:06:32;;;;;;;8.52;4.47;;;;;;;-23.07;74.91;100731.78;10437266;28;20623;-66
2024/01/05 11:12:17;;;;;;;9.45;4.50;;;;;;;-23.02;75.34;100719.41;10416045;28;20049;-68
2024/01/05 11:18:10;;;;;;;7.82;4.50;;;;;;;-22.91;74.66;100730.16;10402902;28;20044;-65
2024/01/05 11:23:33;;;;;;;9.05;4.00;;;;;;;-22.77;75.05;100732.13;10434374;28;20052;-65
2024/01/05 11:28:55;;;;;;;8.43;4.75;;;;;;;-22.69;74.68;100731.81;10419473;28;20042;-66
2024/01/05 11:34:35;;;;;;;8.00;4.50;;;;;;;-22.75;74.94;100727.69;10414017;28;20037;-65
2024/01/05 11:39:59;;;;;;;9.48;4.82;;;;;;;-22.67;74.92;100730.81;10432637;28;20467;-65
2024/01/05 11:45:52;;;;;;;8.50;4.32;;;;;;;-22.65;74.64;100735.94;10425404;28;20053;-67
2024/01/05 11:51:14;;;;;;;0.75;0.75;;;;;;;-22.58;75.27;100721.75;10412294;28;20425;-67
2024/01/05 11:56:37;;;;;;;1.10;1.00;;;;;;;-22.62;74.91;100723.66;10415956;28;20048;-65
2024/01/05 12:01:59;;;;;;;0.60;0.60;;;;;;;-22.55;75.34;100706.03;10418972;28;20038;-65
2024/01/05 12:07:22;;;;;;;9.82;2.35;;;;;;;-22.60;75.41;100720.97;10425003;28;20049;-65
2024/01/05 12:12:44;;;;;;;3.90;1.48;;;;;;;-22.51;75.05;100715.38;10436599;28;20509;-65
2024/01/05 12:18:11;;;;;;;1.45;1.30;;;;;;;-22.47;75.17;100727.31;10419038;28;20079;-65
2024/01/05 12:23:33;;;;;;;4.57;1.75;;;;;;;-22.51;75.13;100730.97;10409634;28;20129;-64
2024/01/05 12:28:56;;;;;;;5.88;2.40;;;;;;;-22.42;75.04;100727.94;10427523;28;20034;-67
2024/01/05 12:34:19;;;;;;;2.38;1.48;;;;;;;-22.32;75.28;100718.81;10424209;28;20655;-66
2024/01/05 12:39:42;;;;;;;3.63;1.80;;;;;;;-22.28;74.71;100721.25;10427888;28;20611;-66
2024/01/05 12:45:06;;;;;;;1.13;1.08;;;;;;;-22.21;74.64;100727.84;10437473;28;20053;-65
2024/01/05 12:50:30;;;;;;;4.00;1.67;;;;;;;-22.18;74.70;100714.72;10434301;28;20040;-65
2024/01/05 12:55:52;;;;;;;7.13;4.35;;;;;;;-22.14;74.89;100717.09;10425125;28;20398;-69
2024/01/05 13:01:19;;;;;;;7.53;4.32;;;;;;;-22.14;74.83;100722.31;10439389;28;20034;-68
2024/01/05 13:06:43;;;;;;;10.55;5.35;;;;;;;-22.13;74.46;100726.59;10421566;28;20041;-68
2024/01/05 13:12:06;;;;;;;8.25;5.18;;;;;;;-22.02;74.46;100724.31;10436147;28;20037;-67
2024/01/05 13:17:29;;;;;;;8.82;4.68;;;;;;;-21.91;74.39;100731.56;10414185;28;20045;-67
2024/01/05 13:22:53;;;;;;;9.45;4.97;;;;;;;-21.86;74.52;100713.13;10421161;28;20045;-67
2024/01/05 13:28:16;;;;;;;8.85;3.17;;;;;;;-21.86;74.04;100708.81;10435368;28;20041;-68
2024/01/05 13:33:40;;;;;;;5.28;2.85;;;;;;;-21.76;74.20;100719.59;10411225;28;20045;-66
2024/01/05 13:39:02;;;;;;;6.30;2.88;;;;;;;-21.81;74.19;100698.16;10427322;28;20805;-66
2024/01/05 13:44:26;;;;;;;8.20;3.70;;;;;;;-21.83;74.26;100707.81;10420166;28;20091;-66
2024/01/05 13:49:49;;;;;;;7.90;2.92;;;;;;;-21.78;74.45;100696.25;10429004;28;20048;-66
2024/01/05 13:55:12;;;;;;;7.10;3.38;;;;;;;-21.71;74.23;100715.84;10433559;28;20057;-67
2024/01/05 14:00:34;;;;;;;7.70;3.35;;;;;;;-21.72;74.00;100690.72;10447174;28;20033;-67
2024/01/05 14:05:57;;;;;;;7.20;3.72;;;;;;;-21.67;73.95;100698.34;10446161;28;20049;-66
2024/01/05 14:11:19;;;;;;;6.93;3.35;;;;;;;-21.66;73.99;100699.16;10419874;28;20045;-66
2024/01/05 14:16:42;;;;;;;3.85;1.35;;;;;;;-21.59;73.32;100696.19;10460055;28;20041;-68
2024/01/05 14:22:05;;;;;;;4.07;1.63;;;;;;;-21.57;73.23;100676.09;10427036;28;20069;-69
2024/01/05 14:27:29;;;;;;;6.47;3.08;;;;;;;-21.56;73.05;100705.59;10448983;28;20038;-69
2024/01/05 14:32:51;;;;;;;11.43;4.43;;;;;;;-21.49;73.10;100686.16;10442544;28;20041;-69
2024/01/05 14:38:14;;;;;;;7.68;3.28;;;;;;;-21.41;72.96;100699.63;10440225;28;20061;-66
2024/01/05 14:43:37;;;;;;;7.25;3.53;;;;;;;-21.33;73.02;100694.88;10444265;28;20497;-67
2024/01/05 14:49:06;;;;;;;7.22;3.15;;;;;;;-21.22;72.98;100687.31;10459317;28;20586;-68
2024/01/05 14:54:28;;;;;;;6.72;3.55;;;;;;;-21.15;72.96;100693.06;10420579;28;20045;-67
2024/01/05 14:59:53;;;;;;;6.78;3.42;;;;;;;-21.10;72.44;100676.25;10425845;28;20646;-68
2024/01/05 15:05:16;;;;;;;10.60;3.92;;;;;;;-21.02;73.60;100678.47;10424985;28;20528;-66
2024/01/05 15:10:38;;;;;;;10.27;3.38;;;;;;;-20.98;72.88;100695.66;10401815;28;20050;-68
2024/01/05 15:16:04;;;;;;;10.05;5.20;;;;;;;-20.88;72.11;100681.19;10406518;28;20952;-67
2024/01/05 15:21:27;;;;;;;9.80;4.80;;;;;;;-20.81;72.63;100694.75;10427167;28;20588;-66
2024/01/05 15:26:52;;;;;;;7.78;3.78;;;;;;;-20.66;72.76;100673.06;10423111;28;20084;-67
2024/01/05 15:32:18;;;;;;;8.35;5.05;;;;;;;-20.56;73.16;100669.03;10440985;28;20049;-65
2024/01/05 15:37:41;;;;;;;8.38;5.13;;;;;;;-20.44;72.94;100677.97;10407575;28;20060;-65
2024/01/05 15:43:10;;;;;;;8.18;4.40;;;;;;;-20.33;73.03;100665.13;10427882;28;20046;-66
2024/01/05 15:48:34;;;;;;;9.90;4.70;;;;;;;-20.33;73.10;100672.13;10418126;28;20512;-65
2024/01/05 15:53:56;;;;;;;11.30;5.30;;;;;;;-20.28;73.33;100668.34;10408068;28;20137;-67
2024/01/05 15:59:30;;;;;;;9.95;4.65;;;;;;;-20.16;72.70;100672.03;10423927;28;20103;-66
2024/01/05 16:04:53;;;;;;;9.32;4.40;;;;;;;-20.13;72.86;100666.63;10419220;28;20037;-65
2024/01/05 16:10:16;;;;;;;10.55;5.50;;;;;;;-20.17;73.09;100660.75;10420860;28;20030;-65
2024/01/05 16:15:39;;;;;;;9.35;5.05;;;;;;;-20.23;74.39;100675.91;10427755;28;20056;-67
2024/01/05 16:21:04;;;;;;;8.73;4.80;;;;;;;-20.17;73.73;100655.53;10419286;28;20033;-67
2024/01/05 16:26:28;;;;;;;5.57;2.08;;;;;;;-20.12;74.22;100663.13;10430000;28;20041;-67
2024/01/05 16:31:50;;;;;;;10.23;5.22;;;;;;;-20.05;74.25;100642.72;10427195;28;20071;-66
2024/01/05 16:37:13;;;;;;;3.00;2.20;;;;;;;-20.06;74.29;100652.34;10420249;28;20041;-66
2024/01/05 16:42:36;;;;;;;1.45;1.05;;;;;;;-19.98;74.73;100650.13;10429557;28;20041;-64
2024/01/05 16:47:58;;;;;;;2.65;1.75;;;;;;;-19.99;74.86;100645.81;10427425;28;20433;-63
2024/01/05 16:53:21;;;;;;;2.78;1.95;;;;;;;-19.97;75.15;100654.41;10426843;28;20422;-63
2024/01/05 16:58:51;;;;;;;6.70;2.85;;;;;;;-20.04;75.34;100645.25;10436189;28;20029;-67
2024/01/05 17:04:14;;;;;;;6.85;2.35;;;;;;;-20.09;75.49;100639.47;10430462;28;20041;-66
2024/01/05 17:09:38;;;;;;;5.28;1.95;;;;;;;-20.03;75.68;100643.47;10401859;28;20081;-63
2024/01/05 17:15:02;;;;;;;6.13;2.15;;;;;;;-19.91;75.81;100654.06;10431976;28;20041;-65
2024/01/05 17:20:28;;;;;;;2.78;1.58;;;;;;;-19.88;75.41;100659.13;10435836;28;20033;-68
2024/01/05 17:25:57;;;;;;;1.02;0.98;;;;;;;-19.92;75.94;100681.13;10432605;28;20041;-68
2024/01/05 17:31:19;;;;;;;2.45;2.20;;;;;;;-19.89;75.79;100665.28;10410082;28;20033;-65
2024/01/05 17:36:42;;;;;;;7.47;1.48;;;;;;;-19.85;76.56;100660.72;10428275;28;20042;-66
2024/01/05 17:42:05;;;;;;;9.65;3.13;;;;;;;-19.83;76.67;100654.47;10419845;28;20501;-65
2024/01/05 17:47:32;;;;;;;6.50;3.03;;;;;;;-19.70;76.85;100648.53;10417402;28;20060;-66
2024/01/05 17:52:55;;;;;;;4.35;2.40;;;;;;;-19.80;76.94;100650.84;10421573;28;20033;-65
2024/01/05 17:58:17;;;;;;;7.53;2.83;;;;;;;-19.76;76.89;100651.53;10417920;28;20045;-66
2024/01/05 18:03:25;;;;;;;1.02;0.98;;;;;;;-19.69;76.85;100650.22;10417283;28;20244;-66
2024/01/05 18:08:28;;;;;;;4.43;1.80;;;;;;;-19.68;77.29;100657.97;10415840;28;20429;-65
2024/01/05 18:13:31;;;;;;;5.75;2.33;;;;;;;-19.63;77.77;100649.84;10440466;28;20046;-64
2024/01/05 18:18:38;;;;;;;3.47;1.45;;;;;;;-19.56;77.65;100645.97;10435685;28;20033;-64
2024/01/05 18:23:40;;;;;;;2.72;1.73;;;;;;;-19.54;77.86;100655.41;10416823;28;20518;-64
2024/01/05 18:28:43;;;;;;;5.30;2.25;;;;;;;-19.49;77.42;100647.25;10421274;28;20038;-65
2024/01/05 18:33:46;;;;;;;2.05;1.35;;;;;;;-19.52;78.34;100650.06;10419863;28;20045;-65
2024/01/05 18:38:53;;;;;;;6.72;3.30;;;;;;;-19.53;78.37;100625.69;10416983;28;20095;-67
2024/01/05 18:44:14;;;;;;;7.13;3.72;;;;;;;-19.49;78.37;100628.97;10413474;28;20513;-64
2024/01/05 18:49:16;;;;;;;8.32;2.55;;;;;;;-19.46;78.47;100641.84;10411381;28;20046;-66
2024/01/05 18:54:20;;;;;;;3.03;1.95;;;;;;;-19.40;78.76;100638.88;10426746;28;20037;-65
2024/01/05 18:59:22;;;;;;;4.13;2.28;;;;;;;-19.40;79.00;100648.50;10426194;28;20038;-64
2024/01/05 19:04:25;;;;;;;3.53;1.70;;;;;;;-19.32;79.05;100638.41;10428506;28;20046;-65
2024/01/05 19:09:28;;;;;;;6.90;3.28;;;;;;;-19.26;79.10;100667.66;10415639;28;20129;-64
2024/01/05 19:14:30;;;;;;;4.35;2.05;;;;;;;-19.19;78.42;100643.75;10418170;28;20430;-64
2024/01/05 19:19:33;;;;;;;5.88;2.72;;;;;;;-19.15;78.63;100640.88;10434299;28;20132;-66
2024/01/05 19:24:36;;;;;;;1.52;0.90;;;;;;;-19.26;78.59;100658.94;10430287;28;20072;-68
2024/01/05 19:29:42;;;;;;;5.78;1.92;;;;;;;-19.25;79.40;100655.44;10424051;28;20123;-66
2024/01/05 19:34:44;;;;;;;6.57;3.05;;;;;;;-19.27;79.05;100657.28;10431379;28;20038;-66
2024/01/05 19:39:47;;;;;;;4.78;1.83;;;;;;;-19.29;79.28;100657.38;10438678;28;20033;-65
2024/01/05 19:44:49;;;;;;;7.35;1.65;;;;;;;-19.29;79.35;100644.28;10439836;28;20136;-64
2024/01/05 19:49:53;;;;;;;5.32;3.00;;;;;;;-19.29;78.63;100659.13;10427987;28;20448;-65
2024/01/05 19:54:57;;;;;;;6.88;3.17;;;;;;;-19.32;79.27;100664.56;10445581;28;20037;-66
2024/01/05 19:59:59;;;;;;;1.30;0.95;;;;;;;-19.34;78.88;100650.75;10441100;28;20037;-65
2024/01/05 20:05:02;;;;;;;3.65;2.42;;;;;;;-19.34;78.92;100669.88;10442013;28;20041;-66
2024/01/05 20:10:07;;;;;;;3.15;1.63;;;;;;;-19.33;79.05;100663.72;10409825;28;20042;-65
2024/01/05 20:15:10;;;;;;;2.85;1.58;;;;;;;-19.32;79.25;100665.41;10434391;28;20045;-66
2024/01/05 20:20:21;;;;;;;2.92;1.58;;;;;;;-19.32;79.41;100660.16;10431717;28;20064;-65
2024/01/05 20:25:24;;;;;;;3.95;1.70;;;;;;;-19.31;78.88;100663.63;10443142;28;20044;-66
2024/01/05 20:30:29;;;;;;;6.50;2.55;;;;;;;-19.36;79.31;100656.06;10426045;28;20069;-64
2024/01/05 20:35:32;;;;;;;1.65;1.15;;;;;;;-19.38;79.05;100659.69;10427020;28;20054;-64
2024/01/05 20:40:34;;;;;;;2.97;1.35;;;;;;;-19.42;79.12;100661.66;10442981;28;20038;-64
2024/01/05 20:45:36;;;;;;;2.33;1.45;;;;;;;-19.38;79.03;100654.47;10435072;28;20539;-65
2024/01/05 20:50:39;;;;;;;3.40;1.98;;;;;;;-19.44;79.21;100679.16;10401511;28;20080;-66
2024/01/05 20:55:41;;;;;;;4.30;2.45;;;;;;;-19.40;79.19;100675.47;10419852;28;20715;-65
2024/01/05 21:00:44;;;;;;;0.85;0.85;;;;;;;-19.42;78.92;100690.41;10435722;28;20034;-65
2024/01/05 21:05:48;;;;;;;5.05;2.00;;;;;;;-19.42;78.41;100684.34;10412890;28;20042;-65
2024/01/05 21:10:52;;;;;;;4.68;1.75;;;;;;;-19.49;79.35;100683.84;10417207;28;20374;-67
2024/01/05 21:15:55;;;;;;;1.73;1.02;;;;;;;-19.54;78.81;100696.38;10441255;28;20406;-66
2024/01/05 21:21:06;;;;;;;2.10;1.75;;;;;;;-19.53;78.84;100695.41;10427236;28;20067;-64
2024/01/05 21:26:09;;;;;;;2.97;1.42;;;;;;;-19.54;79.01;100702.44;10419735;28;20132;-65
2024/01/05 21:31:13;;;;;;;4.22;1.70;;;;;;;-19.53;79.19;100690.19;10436186;28;20048;-66
2024/01/05 21:36:17;;;;;;;7.65;3.22;;;;;;;-19.48;79.01;100693.34;10432957;28;20029;-66
2024/01/05 21:41:23;;;;;;;1.55;1.20;;;;;;;-19.48;79.11;100706.41;10429522;28;20041;-66
2024/01/05 21:46:31;;;;;;;3.97;1.80;;;;;;;-19.48;79.56;100706.41;10436291;28;20108;-67
2024/01/05 21:51:36;;;;;;;2.15;2.00;;;;;;;-19.44;78.82;100707.06;10428346;28;20041;-66
2024/01/05 21:56:42;;;;;;;9.32;2.38;;;;;;;-19.48;79.34;100706.41;10433582;28;20055;-67
2024/01/05 22:01:46;;;;;;;8.43;2.03;;;;;;;-19.43;78.75;100699.19;10436090;28;20045;-67
2024/01/05 22:06:52;;;;;;;0.98;0.98;;;;;;;-19.44;79.31;100702.69;10443675;28;20041;-68
2024/01/05 22:11:58;;;;;;;2.13;1.70;;;;;;;-19.49;78.67;100704.75;10438806;28;20041;-67
2024/01/05 22:17:05;;;;;;;4.30;2.20;;;;;;;-19.46;78.46;100704.56;10446165;28;20091;-65
2024/01/05 22:22:09;;;;;;;1.30;1.20;;;;;;;-19.45;78.67;100695.78;10435473;28;20037;-66
2024/01/05 22:27:12;;;;;;;2.20;1.20;;;;;;;-19.48;79.14;100684.69;10424244;28;20049;-67
2024/01/05 22:32:14;;;;;;;2.67;2.22;;;;;;;-19.43;79.37;100709.63;10423578;28;20037;-66
2024/01/05 22:37:21;;;;;;;1.40;0.73;;;;;;;-19.38;79.27;100701.50;10447168;28;20044;-68
2024/01/05 22:42:23;;;;;;;1.02;0.98;;;;;;;-19.44;79.04;100707.91;10445851;28;20033;-65
2024/01/05 22:47:26;;;;;;;4.43;2.28;;;;;;;-19.43;79.05;100703.53;10416116;28;20041;-66
2024/01/05 22:52:29;;;;;;;2.72;2.40;;;;;;;-19.39;78.79;100711.13;10426509;28;20049;-66
2024/01/05 22:57:32;;;;;;;2.67;1.85;;;;;;;-19.35;78.72;100703.94;10432701;28;20520;-65
2024/01/05 23:02:35;;;;;;;1.92;1.00;;;;;;;-19.31;78.60;100710.66;10417745;28;20121;-64
2024/01/05 23:07:38;;;;;;;3.22;1.63;;;;;;;-19.30;79.34;100705.34;10420794;28;20527;-64
2024/01/05 23:12:40;;;;;;;3.75;2.50;;;;;;;-19.24;79.16;100709.41;10422353;28;20025;-64
2024/01/05 23:17:43;;;;;;;2.45;1.35;;;;;;;-19.24;79.16;100715.47;10428449;28;20041;-65
2024/01/05 23:22:45;;;;;;;1.08;1.02;;;;;;;-19.16;79.00;100717.63;10413147;28;20049;-65
2024/01/05 23:27:51;;;;;;;1.65;1.23;;;;;;;-19.11;78.87;100717.34;10419792;28;20092;-65
2024/01/05 23:32:53;;;;;;;2.00;1.30;;;;;;;-19.06;78.50;100724.00;10420067;28;20036;-64